Time;durP1;ratioP1;P1;durP2;ratioP2;P2;SDS_P1;SDS_P2;PMS_P1;PMS_P2;Temp;Humidity;BMP_temperature;BMP_pressure;BME280_temperature;BME280_humidity;BME280_pressure;Samples;Min_cycle;Max_cycle;Signal;HPM_P1;HPM_P2
2022/05/16 00:00:57;;;;;;;4.85;3.03;;;19.70;49.10;;;;;;5049904;28;20079;-49
2022/05/16 00:03:24;;;;;;;3.65;2.63;;;19.70;49.20;;;;;;5048925;28;20083;-47
2022/05/16 00:05:59;;;;;;;4.03;3.00;;;19.70;49.40;;;;;;5048754;28;20842;-43
2022/05/16 00:08:28;;;;;;;3.83;2.38;;;19.60;50.20;;;;;;5049490;28;20100;-47
2022/05/16 00:10:56;;;;;;;2.90;2.70;;;19.60;49.50;;;;;;5050002;28;20116;-45
2022/05/16 00:13:22;;;;;;;3.25;2.53;;;19.50;49.50;;;;;;5044363;28;20099;-47
2022/05/16 00:15:53;;;;;;;2.75;2.50;;;19.50;49.60;;;;;;5042803;28;20064;-50
2022/05/16 00:18:19;;;;;;;3.25;2.72;;;19.50;50.00;;;;;;5047545;28;20041;-45
2022/05/16 00:20:46;;;;;;;3.25;2.83;;;19.50;49.80;;;;;;5049733;28;20463;-47
2022/05/16 00:23:15;;;;;;;4.03;2.88;;;19.50;49.80;;;;;;5048561;28;20070;-49
2022/05/16 00:25:42;;;;;;;3.75;2.92;;;19.50;49.90;;;;;;5047382;28;20060;-45
2022/05/16 00:28:13;;;;;;;4.47;3.05;;;19.40;49.80;;;;;;5049501;28;20448;-46
2022/05/16 00:30:43;;;;;;;4.80;2.95;;;19.40;50.20;;;;;;5046202;28;20049;-47
2022/05/16 00:33:09;;;;;;;3.85;2.80;;;19.30;50.00;;;;;;5047006;28;20072;-47
2022/05/16 00:35:38;;;;;;;3.22;2.88;;;19.30;50.10;;;;;;5048773;28;20040;-45
2022/05/16 00:38:12;;;;;;;3.13;2.83;;;19.30;50.50;;;;;;5033771;28;20072;-48
2022/05/16 00:40:39;;;;;;;4.40;3.40;;;19.20;50.30;;;;;;5041343;28;20072;-47
2022/05/16 00:43:11;;;;;;;3.72;2.75;;;19.30;50.50;;;;;;5026970;28;20574;-46
2022/05/16 00:45:41;;;;;;;3.60;2.45;;;19.20;50.60;;;;;;5040804;28;20041;-45
2022/05/16 00:48:08;;;;;;;4.75;3.05;;;19.20;50.50;;;;;;5049489;28;20045;-44
2022/05/16 00:50:39;;;;;;;3.78;2.83;;;19.20;50.70;;;;;;5049809;28;20041;-45
2022/05/16 00:53:06;;;;;;;3.45;2.90;;;19.10;50.70;;;;;;5052216;28;20447;-47
2022/05/16 00:55:37;;;;;;;3.60;3.03;;;19.10;51.50;;;;;;5053072;28;20095;-48
2022/05/16 00:58:11;;;;;;;3.50;2.70;;;19.10;51.10;;;;;;5051617;28;20447;-44
2022/05/16 01:00:50;;;;;;;;;;;19.10;51.20;;;;;;5046309;28;20048;-45
2022/05/16 01:06:07;;;;;;;3.13;2.78;;;19.10;50.40;;;;;;5051840;28;20038;-48
2022/05/16 01:08:43;;;;;;;4.55;2.90;;;19.10;50.40;;;;;;5051895;28;20040;-45
2022/05/16 01:11:16;;;;;;;4.45;2.80;;;19.00;50.90;;;;;;5052627;28;20471;-45
2022/05/16 01:13:43;;;;;;;4.45;2.22;;;19.00;50.80;;;;;;5053073;28;20037;-46
2022/05/16 01:16:12;;;;;;;3.53;2.70;;;18.90;50.90;;;;;;5052011;28;20075;-44
2022/05/16 01:18:41;;;;;;;4.15;3.10;;;18.90;51.40;;;;;;5048168;28;20056;-48
2022/05/16 01:21:21;;;;;;;4.22;2.88;;;18.90;51.20;;;;;;5049343;28;20139;-48
2022/05/16 01:23:54;;;;;;;4.07;3.13;;;18.90;51.80;;;;;;5052344;28;20045;-47
2022/05/16 01:26:26;;;;;;;4.32;2.55;;;18.90;51.60;;;;;;5039117;28;20037;-47
2022/05/16 01:28:55;;;;;;;3.05;2.58;;;18.80;51.50;;;;;;5046674;28;20071;-46
2022/05/16 01:31:24;;;;;;;2.42;2.15;;;18.80;51.40;;;;;;5052127;28;20037;-45
2022/05/16 01:33:55;;;;;;;3.38;2.58;;;18.80;51.40;;;;;;5067702;23;20674;-46
2022/05/16 01:36:22;;;;;;;3.40;2.33;;;18.80;51.50;;;;;;5013500;28;20105;-45
2022/05/16 01:38:51;;;;;;;2.90;2.53;;;18.70;51.60;;;;;;5012939;28;20174;-49
2022/05/16 01:41:23;;;;;;;3.55;2.67;;;18.70;51.70;;;;;;5032681;28;20042;-48
2022/05/16 01:43:55;;;;;;;2.90;2.20;;;18.70;51.80;;;;;;5024177;28;20041;-51
2022/05/16 01:46:39;;;;;;;3.67;3.38;;;18.70;52.10;;;;;;5049110;28;20436;-48
2022/05/16 01:49:09;;;;;;;2.95;2.63;;;18.60;52.10;;;;;;5048187;28;20072;-51
2022/05/16 01:51:40;;;;;;;4.70;2.60;;;18.70;51.90;;;;;;5031701;28;20096;-48
2022/05/16 01:54:07;;;;;;;2.50;2.30;;;18.60;52.20;;;;;;5040317;28;20041;-50
2022/05/16 01:56:35;;;;;;;4.18;2.70;;;18.70;52.20;;;;;;5049621;28;20041;-49
2022/05/16 01:59:04;;;;;;;3.58;2.47;;;18.50;52.10;;;;;;5051556;28;20079;-50
2022/05/16 02:01:31;;;;;;;4.32;2.35;;;18.60;52.10;;;;;;5050364;28;20053;-51
2022/05/16 02:04:00;;;;;;;2.50;2.20;;;18.50;52.30;;;;;;5051367;28;20120;-51
2022/05/16 02:06:26;;;;;;;3.35;2.83;;;18.50;52.10;;;;;;5055500;28;20103;-53
2022/05/16 02:08:56;;;;;;;2.85;2.58;;;18.50;52.30;;;;;;5052152;28;20029;-51
2022/05/16 02:11:26;;;;;;;3.80;2.72;;;18.40;52.30;;;;;;5034155;28;20472;-48
2022/05/16 02:13:54;;;;;;;3.33;3.03;;;18.40;52.40;;;;;;5050806;28;20120;-52
2022/05/16 02:16:26;;;;;;;2.75;2.03;;;18.40;52.40;;;;;;5041189;28;20045;-46
2022/05/16 02:18:55;;;;;;;3.28;2.95;;;18.40;52.50;;;;;;5047353;28;20049;-50
2022/05/16 02:27:04;;;;;;;3.50;2.60;;;18.30;52.60;;;;;;5046645;28;20063;-47
2022/05/16 02:29:34;;;;;;;3.95;2.50;;;18.30;52.60;;;;;;5050335;28;20051;-46
2022/05/16 02:32:02;;;;;;;4.30;2.60;;;18.30;52.60;;;;;;5049339;28;20083;-48
2022/05/16 02:34:32;;;;;;;3.45;2.92;;;18.30;52.80;;;;;;5049426;28;20052;-51
2022/05/16 02:36:59;;;;;;;5.05;2.35;;;18.30;53.10;;;;;;5044198;28;20037;-50
2022/05/16 02:39:26;;;;;;;4.03;2.72;;;18.20;52.90;;;;;;5029999;28;20049;-50
2022/05/16 02:41:56;;;;;;;3.92;2.60;;;18.20;53.10;;;;;;5050086;28;20870;-51
2022/05/16 02:44:23;;;;;;;4.68;2.60;;;18.20;53.20;;;;;;5046860;28;20111;-52
2022/05/16 02:46:50;;;;;;;2.97;2.35;;;18.20;53.30;;;;;;5050713;28;20071;-50
2022/05/16 02:49:21;;;;;;;4.28;3.15;;;18.20;53.30;;;;;;5050802;28;20581;-50
2022/05/16 02:51:48;;;;;;;3.28;2.40;;;18.20;53.40;;;;;;5049445;28;20377;-51
2022/05/16 02:54:15;;;;;;;3.30;2.72;;;18.20;53.60;;;;;;5051018;28;20099;-51
2022/05/16 02:56:43;;;;;;;3.10;2.83;;;18.30;53.60;;;;;;5050384;28;20044;-50
2022/05/16 02:59:12;;;;;;;6.05;2.70;;;18.20;53.50;;;;;;5050411;28;20132;-47
2022/05/16 03:01:41;;;;;;;5.43;2.40;;;18.20;53.50;;;;;;5045294;28;20154;-46
2022/05/16 03:04:10;;;;;;;3.45;2.40;;;18.20;54.10;;;;;;5050888;28;20382;-47
2022/05/16 03:06:37;;;;;;;5.43;2.95;;;18.20;53.50;;;;;;5030182;28;20449;-47
2022/05/16 03:09:09;;;;;;;5.43;2.60;;;18.20;53.60;;;;;;5038060;28;20103;-49
2022/05/16 03:11:36;;;;;;;9.52;3.10;;;18.20;53.60;;;;;;5049395;28;20033;-51
2022/05/16 03:14:07;;;;;;;2.50;2.28;;;18.20;53.70;;;;;;5032317;28;20124;-48
2022/05/16 03:16:35;;;;;;;4.70;3.05;;;18.20;54.10;;;;;;5049560;28;20041;-49
2022/05/16 03:19:03;;;;;;;3.22;2.85;;;18.20;53.70;;;;;;5048328;28;20455;-51
2022/05/16 03:21:30;;;;;;;6.22;3.08;;;18.10;53.50;;;;;;5047292;28;20045;-46
2022/05/16 03:23:58;;;;;;;4.95;3.03;;;18.20;53.70;;;;;;5050141;28;20242;-47
2022/05/16 03:26:26;;;;;;;4.45;2.65;;;18.10;53.70;;;;;;5049772;28;20045;-50
2022/05/16 03:28:53;;;;;;;4.10;2.63;;;18.10;53.80;;;;;;5047479;28;20033;-49
2022/05/16 03:31:20;;;;;;;4.72;2.75;;;18.00;53.70;;;;;;5009853;28;20033;-47
2022/05/16 03:33:47;;;;;;;4.60;3.45;;;18.00;53.70;;;;;;5038607;28;20041;-47
2022/05/16 03:36:13;;;;;;;5.80;3.15;;;18.00;53.80;;;;;;5029743;28;20056;-48
2022/05/16 03:41:25;;;;;;;3.45;3.15;;;18.00;53.90;;;;;;5036644;28;20041;-50
2022/05/16 03:43:52;;;;;;;6.05;2.88;;;18.00;53.90;;;;;;5039412;28;20075;-49
2022/05/16 03:46:19;;;;;;;6.47;2.83;;;17.90;54.10;;;;;;5034388;28;20453;-47
2022/05/16 03:48:46;;;;;;;6.85;3.47;;;17.90;54.20;;;;;;5038695;28;20095;-51
2022/05/16 03:51:14;;;;;;;4.97;2.88;;;17.90;54.30;;;;;;5029205;28;20040;-52
2022/05/16 03:53:47;;;;;;;7.13;3.95;;;17.90;54.40;;;;;;5039429;28;20459;-52
2022/05/16 03:56:20;;;;;;;4.35;2.92;;;17.90;54.40;;;;;;5026877;28;20037;-52
2022/05/16 03:58:46;;;;;;;3.65;3.00;;;18.00;55.00;;;;;;5043736;28;20045;-52
2022/05/16 04:01:14;;;;;;;7.22;3.20;;;17.90;54.60;;;;;;5039661;28;20500;-51
2022/05/16 04:03:42;;;;;;;5.28;2.97;;;17.90;54.70;;;;;;5028596;28;20045;-52
2022/05/16 04:06:09;;;;;;;5.95;3.20;;;17.90;54.80;;;;;;5029703;28;20041;-49
2022/05/16 04:08:36;;;;;;;5.32;3.08;;;17.90;55.00;;;;;;5041149;28;20119;-51
2022/05/16 04:11:03;;;;;;;4.50;2.75;;;17.90;55.10;;;;;;5027543;28;20094;-48
2022/05/16 04:13:30;;;;;;;3.63;3.15;;;17.90;55.20;;;;;;5036911;28;20053;-52
2022/05/16 04:15:57;;;;;;;3.58;2.85;;;18.00;55.30;;;;;;5044387;28;20037;-47
2022/05/16 04:18:32;;;;;;;6.32;3.33;;;18.00;55.40;;;;;;5045595;28;20041;-51
2022/05/16 04:20:59;;;;;;;4.03;2.80;;;18.10;55.50;;;;;;5049025;28;20079;-46
2022/05/16 04:23:26;;;;;;;5.55;4.18;;;18.00;55.40;;;;;;5048805;28;20455;-50
2022/05/16 04:25:52;;;;;;;6.22;3.05;;;18.10;55.60;;;;;;5049975;28;20049;-50
2022/05/16 04:28:19;;;;;;;6.78;3.50;;;18.10;55.60;;;;;;5053041;28;20574;-51
2022/05/16 04:30:46;;;;;;;6.05;3.15;;;18.10;55.70;;;;;;5053697;28;20111;-53
2022/05/16 04:33:13;;;;;;;5.30;3.50;;;18.10;55.90;;;;;;5053075;28;20460;-50
2022/05/16 04:35:40;;;;;;;7.93;4.00;;;18.20;56.10;;;;;;5024260;28;20037;-48
2022/05/16 04:38:06;;;;;;;4.07;2.70;;;18.20;56.30;;;;;;5042611;28;20067;-46
2022/05/16 04:40:33;;;;;;;4.47;2.47;;;18.20;56.50;;;;;;5049680;28;20026;-49
2022/05/16 04:43:00;;;;;;;4.72;2.88;;;18.30;56.70;;;;;;5050979;28;20069;-46
2022/05/16 04:45:29;;;;;;;3.47;2.67;;;18.40;56.90;;;;;;5052372;28;20033;-47
2022/05/16 04:47:59;;;;;;;4.47;2.80;;;18.40;57.10;;;;;;5053630;28;20043;-51
2022/05/16 04:50:29;;;;;;;3.83;2.92;;;18.50;57.30;;;;;;5051411;28;20045;-50
2022/05/16 04:52:56;;;;;;;6.50;3.30;;;18.50;57.40;;;;;;5046634;28;20041;-46
2022/05/16 04:55:24;;;;;;;6.03;3.30;;;18.60;57.40;;;;;;5050697;28;20526;-51
2022/05/16 04:57:51;;;;;;;3.95;3.30;;;18.70;57.40;;;;;;5053067;28;20440;-52
2022/05/16 05:00:20;;;;;;;4.97;3.40;;;18.80;57.60;;;;;;5050709;28;20074;-50
2022/05/16 05:02:47;;;;;;;4.95;3.13;;;18.80;58.00;;;;;;5048849;28;20127;-52
2022/05/16 05:05:20;;;;;;;4.20;2.88;;;18.90;58.20;;;;;;5048672;28;20044;-47
2022/05/16 05:07:47;;;;;;;5.80;3.20;;;19.00;58.20;;;;;;5052533;28;20041;-48
2022/05/16 05:15:53;;;;;;;5.97;3.58;;;19.30;58.80;;;;;;5042167;28;20033;-49
2022/05/16 05:18:20;;;;;;;7.15;3.55;;;19.40;58.60;;;;;;5051150;28;20045;-50
2022/05/16 05:20:47;;;;;;;6.18;3.15;;;19.50;59.30;;;;;;5052718;28;20520;-50
2022/05/16 05:23:13;;;;;;;5.28;3.20;;;19.60;58.80;;;;;;5054617;28;20115;-49
2022/05/16 05:25:40;;;;;;;4.85;2.95;;;19.70;58.70;;;;;;5051711;28;20041;-48
2022/05/16 05:28:07;;;;;;;8.40;3.42;;;19.80;57.00;;;;;;5052245;28;20044;-52
2022/05/16 05:30:34;;;;;;;5.43;3.42;;;19.90;56.80;;;;;;5050793;28;20117;-51
2022/05/16 05:33:00;;;;;;;7.70;3.13;;;20.00;56.40;;;;;;5050165;28;20050;-49
2022/05/16 05:35:29;;;;;;;5.68;3.50;;;20.20;56.90;;;;;;5051372;28;20041;-52
2022/05/16 05:37:56;;;;;;;6.75;3.75;;;20.20;56.90;;;;;;5037800;28;20045;-51
2022/05/16 05:40:24;;;;;;;6.95;3.67;;;20.30;56.00;;;;;;5047396;28;20382;-51
2022/05/16 05:42:51;;;;;;;5.80;3.10;;;20.40;55.10;;;;;;5051234;28;20590;-50
2022/05/16 05:45:18;;;;;;;4.75;2.83;;;20.40;53.90;;;;;;5051635;28;20052;-51
2022/05/16 05:47:46;;;;;;;4.65;2.90;;;20.50;54.10;;;;;;5050446;28;20056;-48
2022/05/16 05:50:13;;;;;;;7.13;3.15;;;20.60;54.00;;;;;;5048877;28;20072;-51
2022/05/16 05:52:39;;;;;;;6.85;3.60;;;20.70;54.00;;;;;;5047147;28;20040;-52
2022/05/16 05:55:07;;;;;;;5.18;3.20;;;20.80;53.80;;;;;;5047627;28;20136;-50
2022/05/16 05:57:33;;;;;;;6.55;2.92;;;20.80;54.00;;;;;;5050979;28;20129;-51
2022/05/16 06:00:00;;;;;;;5.00;3.03;;;20.90;54.70;;;;;;5052363;28;20492;-50
2022/05/16 06:02:28;;;;;;;5.68;3.10;;;20.90;55.00;;;;;;5049888;28;20036;-52
2022/05/16 06:04:55;;;;;;;6.45;3.22;;;20.90;54.90;;;;;;5048214;28;20315;-49
2022/05/16 06:07:21;;;;;;;3.67;2.92;;;21.00;54.80;;;;;;5050823;28;20033;-51
2022/05/16 06:09:49;;;;;;;5.70;3.30;;;21.00;55.60;;;;;;5046775;28;20048;-51
2022/05/16 06:12:16;;;;;;;8.32;3.08;;;21.00;55.80;;;;;;5050169;28;20060;-51
2022/05/16 06:14:43;;;;;;;6.72;4.00;;;21.10;55.40;;;;;;5050727;28;20976;-51
2022/05/16 06:17:12;;;;;;;5.38;3.80;;;21.10;55.40;;;;;;5048589;28;20071;-47
2022/05/16 06:19:39;;;;;;;4.20;3.63;;;21.00;55.20;;;;;;5049539;28;20045;-47
2022/05/16 06:22:05;;;;;;;4.82;3.80;;;21.00;55.20;;;;;;5050379;28;20048;-47
2022/05/16 06:27:17;;;;;;;8.95;3.53;;;21.00;55.40;;;;;;5047746;28;20041;-50
2022/05/16 06:29:44;;;;;;;5.53;3.08;;;21.00;55.80;;;;;;5047986;28;20107;-49
2022/05/16 06:32:11;;;;;;;6.30;3.35;;;21.00;56.00;;;;;;5051123;28;20539;-50
2022/05/16 06:34:38;;;;;;;5.68;3.60;;;20.90;56.60;;;;;;5049535;28;20041;-50
2022/05/16 06:37:05;;;;;;;5.43;3.60;;;20.90;56.60;;;;;;5047761;28;20103;-48
2022/05/16 06:39:31;;;;;;;6.65;3.88;;;20.90;57.00;;;;;;5051214;28;20045;-48
2022/05/16 06:41:58;;;;;;;5.18;4.13;;;20.90;57.60;;;;;;5044644;28;20574;-50
2022/05/16 06:44:28;;;;;;;5.80;3.80;;;20.90;57.80;;;;;;5047870;28;20052;-53
2022/05/16 06:46:59;;;;;;;5.57;3.65;;;21.00;58.00;;;;;;5047854;28;20041;-51
2022/05/16 06:49:25;;;;;;;3.40;3.10;;;21.00;58.30;;;;;;5049585;28;20040;-48
2022/05/16 06:51:52;;;;;;;5.25;3.95;;;21.00;57.90;;;;;;5048527;28;20064;-47
2022/05/16 06:54:19;;;;;;;5.43;3.95;;;21.00;58.00;;;;;;5046661;28;20133;-47
2022/05/16 06:56:46;;;;;;;3.72;3.40;;;21.00;58.00;;;;;;5048817;28;20037;-50
2022/05/16 06:59:12;;;;;;;7.72;4.10;;;21.00;58.20;;;;;;5048905;28;20073;-47
2022/05/16 07:01:39;;;;;;;5.55;3.70;;;21.10;58.30;;;;;;5048958;28;20044;-51
2022/05/16 07:04:06;;;;;;;9.30;4.47;;;21.10;58.20;;;;;;5032207;28;20136;-53
2022/05/16 07:06:33;;;;;;;7.03;3.83;;;21.10;58.50;;;;;;5046608;28;20061;-48
2022/05/16 07:09:00;;;;;;;5.72;3.92;;;21.20;58.70;;;;;;5049712;28;20052;-51
2022/05/16 07:11:26;;;;;;;4.80;3.92;;;21.20;58.70;;;;;;5048256;28;20036;-50
2022/05/16 07:13:53;;;;;;;6.40;4.30;;;21.20;58.50;;;;;;5050077;28;20103;-49
2022/05/16 07:16:20;;;;;;;8.18;4.32;;;21.30;58.90;;;;;;5046578;28;20103;-48
2022/05/16 07:18:47;;;;;;;5.22;4.05;;;21.30;58.70;;;;;;5050444;28;20497;-50
2022/05/16 07:21:13;;;;;;;5.68;4.38;;;21.40;58.80;;;;;;5050526;28;20045;-51
2022/05/16 07:23:40;;;;;;;6.15;4.15;;;21.50;58.90;;;;;;5050723;28;20547;-49
2022/05/16 07:28:52;;;;;;;5.78;4.32;;;21.60;58.60;;;;;;5045091;28;20037;-50
2022/05/16 07:31:19;;;;;;;6.57;3.60;;;21.70;58.50;;;;;;5050235;28;20033;-52
2022/05/16 07:33:48;;;;;;;7.55;3.95;;;21.80;58.60;;;;;;5047903;28;20048;-51
2022/05/16 07:36:15;;;;;;;5.80;5.03;;;21.90;58.30;;;;;;5049929;28;20041;-50
2022/05/16 07:38:42;;;;;;;8.40;4.20;;;22.00;58.30;;;;;;5037721;28;20124;-52
2022/05/16 07:41:09;;;;;;;8.07;4.40;;;22.10;58.20;;;;;;5071374;23;20099;-46
2022/05/16 07:43:36;;;;;;;6.65;4.35;;;22.20;57.90;;;;;;5045931;28;20068;-45
2022/05/16 07:46:04;;;;;;;7.45;4.55;;;22.30;57.60;;;;;;5049822;28;20790;-45
2022/05/16 07:48:31;;;;;;;8.27;4.32;;;22.40;57.30;;;;;;5050307;28;20041;-47
2022/05/16 07:50:58;;;;;;;10.73;4.32;;;22.50;56.70;;;;;;5056506;28;20037;-45
2022/05/16 07:53:25;;;;;;;7.47;4.45;;;22.60;56.30;;;;;;5048066;28;20649;-45
2022/05/16 07:55:55;;;;;;;6.78;4.15;;;22.70;56.30;;;;;;5049158;28;20087;-47
2022/05/16 07:58:23;;;;;;;10.25;4.40;;;22.80;56.30;;;;;;5050636;28;20094;-44
2022/05/16 08:00:54;;;;;;;8.55;5.00;;;22.90;56.30;;;;;;5049161;28;20048;-44
2022/05/16 08:03:23;;;;;;;7.43;4.57;;;23.00;56.30;;;;;;5048086;28;20048;-44
2022/05/16 08:05:50;;;;;;;11.85;4.78;;;23.10;55.80;;;;;;5048188;28;20098;-44
2022/05/16 08:11:03;;;;;;;6.00;4.20;;;23.30;55.40;;;;;;5048571;28;20107;-46
2022/05/16 08:13:30;;;;;;;12.27;4.22;;;23.40;55.10;;;;;;5049204;28;20068;-44
2022/05/16 08:15:58;;;;;;;8.77;4.40;;;23.50;54.80;;;;;;5038628;28;20032;-49
2022/05/16 08:18:25;;;;;;;7.93;5.10;;;23.70;54.60;;;;;;5070137;28;20496;-48
2022/05/16 08:20:52;;;;;;;9.15;3.85;;;23.70;54.70;;;;;;5051042;28;20041;-45
2022/05/16 08:23:25;;;;;;;7.65;4.03;;;23.80;54.50;;;;;;5049596;28;20041;-44
2022/05/16 08:25:54;;;;;;;10.20;3.70;;;23.90;54.20;;;;;;5046555;28;20041;-44
2022/05/16 08:28:22;;;;;;;6.72;3.42;;;24.00;53.40;;;;;;5048184;28;20037;-45
2022/05/16 08:30:50;;;;;;;9.57;5.40;;;24.10;53.70;;;;;;5047751;28;20033;-46
2022/05/16 08:33:17;;;;;;;7.88;3.85;;;24.20;54.10;;;;;;5049944;28;20098;-45
2022/05/16 08:35:43;;;;;;;6.95;4.43;;;24.30;53.40;;;;;;5049458;28;20037;-44
2022/05/16 08:41:06;;;;;;;5.82;3.22;;;24.40;52.80;;;;;;5047537;28;20045;-44
2022/05/16 08:43:45;;;;;;;7.38;3.60;;;24.40;52.50;;;;;;5052163;28;20102;-45
2022/05/16 08:46:44;;;;;;;8.27;3.60;;;24.50;52.50;;;;;;5050030;28;20286;-44
2022/05/16 08:49:18;;;;;;;4.47;3.13;;;24.50;52.80;;;;;;5049912;28;20084;-48
2022/05/16 08:51:53;;;;;;;8.82;3.53;;;24.50;53.80;;;;;;5051204;28;20087;-43
2022/05/16 08:54:38;;;;;;;5.28;2.92;;;24.60;52.10;;;;;;5050642;28;20072;-47
2022/05/16 08:57:10;;;;;;;7.47;3.58;;;24.70;52.10;;;;;;5052118;28;20045;-45
2022/05/16 08:59:41;;;;;;;3.17;2.88;;;24.70;52.10;;;;;;5052735;28;20091;-45
2022/05/16 09:02:22;;;;;;;8.07;3.03;;;24.70;52.00;;;;;;5051838;28;20045;-47
2022/05/16 09:05:10;;;;;;;6.97;2.45;;;24.80;52.70;;;;;;5034431;28;20065;-46
2022/05/16 09:07:37;;;;;;;4.55;2.65;;;24.80;52.40;;;;;;5051983;28;20052;-46
2022/05/16 09:10:09;;;;;;;6.18;2.85;;;24.90;52.40;;;;;;5050861;28;20443;-46
2022/05/16 09:12:41;;;;;;;4.35;2.20;;;25.00;51.40;;;;;;5053684;28;20091;-47
2022/05/16 09:15:26;;;;;;;3.80;2.38;;;25.10;51.30;;;;;;5053608;28;20048;-46
2022/05/16 09:17:59;;;;;;;3.70;2.22;;;25.20;50.50;;;;;;5054580;28;20041;-45
2022/05/16 09:20:31;;;;;;;3.88;2.65;;;25.30;50.60;;;;;;5055456;28;20037;-45
2022/05/16 09:23:31;;;;;;;3.33;2.20;;;25.50;50.50;;;;;;5055125;28;20041;-47
2022/05/16 09:26:06;;;;;;;4.80;2.22;;;25.60;49.40;;;;;;5053887;28;20055;-45
2022/05/16 09:28:45;;;;;;;3.85;2.35;;;25.70;48.40;;;;;;5048375;28;20512;-46
2022/05/16 09:31:39;;;;;;;3.17;2.00;;;25.90;48.80;;;;;;5055030;28;20087;-47
2022/05/16 09:34:09;;;;;;;4.55;1.88;;;26.10;47.40;;;;;;5054776;28;20056;-44
2022/05/16 09:36:39;;;;;;;5.13;2.13;;;26.30;48.00;;;;;;5053877;28;20091;-46
2022/05/16 09:39:09;;;;;;;4.53;2.08;;;26.50;47.80;;;;;;5055323;28;20052;-45
2022/05/16 09:41:54;;;;;;;3.67;2.25;;;26.60;47.10;;;;;;5052085;28;20453;-45
2022/05/16 09:44:45;;;;;;;6.63;2.55;;;26.80;46.60;;;;;;5054734;28;20509;-50
2022/05/16 09:47:22;;;;;;;;;;;27.00;47.10;;;;;;5054870;28;20041;-45
2022/05/16 09:50:14;;;;;;;2.30;1.52;;;27.10;47.30;;;;;;5046964;28;19924;-47
2022/05/16 09:52:45;;;;;;;4.88;1.98;;;27.30;45.80;;;;;;5051881;28;20040;-44
2022/05/16 09:55:24;;;;;;;9.93;2.67;;;27.50;46.40;;;;;;5052485;28;20049;-49
2022/05/16 09:57:56;;;;;;;5.68;1.83;;;27.60;44.90;;;;;;5055168;28;20092;-47
2022/05/16 10:00:32;;;;;;;4.80;2.42;;;27.70;44.90;;;;;;5055306;28;20041;-49
2022/05/16 10:03:13;;;;;;;3.42;2.70;;;27.80;45.10;;;;;;5053686;28;20053;-48
2022/05/16 10:05:51;;;;;;;4.15;2.10;;;27.90;45.40;;;;;;5046287;28;20064;-45
2022/05/16 10:08:29;;;;;;;2.80;2.50;;;28.00;45.00;;;;;;5055732;28;20563;-47
2022/05/16 10:10:59;;;;;;;3.47;2.00;;;28.10;43.80;;;;;;5053989;28;20064;-49
2022/05/16 10:13:25;;;;;;;4.85;2.22;;;28.30;44.20;;;;;;5035299;28;20045;-46
2022/05/16 10:15:55;;;;;;;2.15;1.92;;;28.30;44.60;;;;;;5054404;28;20049;-47
2022/05/16 10:18:24;;;;;;;3.92;2.38;;;28.40;44.60;;;;;;5052756;28;20404;-47
2022/05/16 10:21:03;;;;;;;3.33;1.92;;;28.50;44.10;;;;;;5054578;28;20083;-48
2022/05/16 10:23:35;;;;;;;2.95;1.90;;;28.60;43.80;;;;;;5052222;28;20052;-48
2022/05/16 10:26:04;;;;;;;;;;;28.60;44.10;;;;;;5054226;28;20045;-48
2022/05/16 10:28:43;;;;;;;6.13;1.88;;;28.70;44.40;;;;;;5054989;28;19967;-47
2022/05/16 10:34:22;;;;;;;2.28;2.08;;;28.70;42.90;;;;;;5051098;28;20133;-47
2022/05/16 10:36:53;;;;;;;3.47;2.03;;;28.70;43.10;;;;;;5054615;28;20110;-47
2022/05/16 10:39:25;;;;;;;8.18;2.60;;;28.70;43.60;;;;;;5054418;28;20037;-47
2022/05/16 10:42:25;;;;;;;3.75;2.00;;;28.80;43.40;;;;;;5052992;28;20037;-46
2022/05/16 10:45:05;;;;;;;4.20;2.30;;;28.90;43.30;;;;;;5047370;28;20051;-48
2022/05/16 10:47:40;;;;;;;5.43;2.28;;;28.90;43.20;;;;;;5054294;28;20075;-49
2022/05/16 10:50:21;;;;;;;4.55;3.13;;;29.00;43.00;;;;;;5053168;28;20090;-48
2022/05/16 10:53:10;;;;;;;5.65;2.55;;;29.00;43.30;;;;;;5051773;28;20059;-48
2022/05/16 10:55:59;;;;;;;5.28;2.78;;;29.00;43.10;;;;;;5050264;28;20033;-49
2022/05/16 10:59:10;;;;;;;5.40;2.50;;;28.90;43.10;;;;;;5052245;28;20037;-47
2022/05/16 11:01:37;;;;;;;3.37;2.57;;;28.80;43.30;;;;;;5041020;28;20041;-45
2022/05/16 11:04:33;;;;;;;3.88;2.67;;;28.80;43.70;;;;;;5053695;28;20548;-50
2022/05/16 11:07:16;;;;;;;3.83;2.75;;;28.70;43.70;;;;;;5018457;28;20108;-48
2022/05/16 11:09:54;;;;;;;5.05;3.22;;;28.60;45.00;;;;;;5048480;28;20127;-50
2022/05/16 11:12:34;;;;;;;5.28;2.95;;;28.50;44.60;;;;;;5052695;28;20401;-50
2022/05/16 11:15:13;;;;;;;7.18;3.10;;;28.50;45.30;;;;;;5052754;28;20041;-49
2022/05/16 11:18:07;;;;;;;4.35;3.17;;;28.50;44.80;;;;;;5045191;28;20653;-50
2022/05/16 11:20:44;;;;;;;5.22;3.13;;;28.50;45.20;;;;;;5052942;28;20103;-49
2022/05/16 11:23:14;;;;;;;4.07;2.95;;;28.60;45.60;;;;;;5052788;28;20049;-48
2022/05/16 11:25:58;;;;;;;3.90;3.00;;;28.60;45.60;;;;;;5050793;28;20098;-45
2022/05/16 11:29:17;;;;;;;3.83;2.95;;;28.60;45.60;;;;;;5048239;28;20080;-49
2022/05/16 11:31:58;;;;;;;7.07;3.25;;;28.70;45.20;;;;;;5044369;28;20045;-48
2022/05/16 11:34:49;;;;;;;8.25;3.88;;;28.80;45.60;;;;;;5051652;28;20041;-45
2022/05/16 11:37:41;;;;;;;4.70;3.67;;;28.90;45.40;;;;;;5050073;28;20067;-50
2022/05/16 11:40:57;;;;;;;8.00;3.20;;;29.00;45.00;;;;;;5051864;28;20081;-51
2022/05/16 11:43:30;;;;;;;10.43;4.15;;;29.10;45.00;;;;;;5040147;28;20060;-45
2022/05/16 11:46:05;;;;;;;;;;;29.30;44.50;;;;;;5050731;28;20067;-51
2022/05/16 11:48:57;;;;;;;3.78;3.22;;;29.30;44.60;;;;;;5052726;28;19925;-51
2022/05/16 11:52:13;;;;;;;7.90;3.83;;;29.40;44.50;;;;;;5050512;28;20041;-49
2022/05/16 11:54:47;;;;;;;6.97;3.80;;;29.40;44.50;;;;;;5047250;28;20048;-49
2022/05/16 12:03:06;;;;;;;6.90;3.88;;;29.50;44.20;;;;;;5050903;28;20048;-51
2022/05/16 12:06:11;;;;;;;6.30;3.83;;;29.50;44.20;;;;;;5050420;28;20083;-48
2022/05/16 12:08:49;;;;;;;6.63;5.32;;;29.50;44.60;;;;;;5051506;28;20503;-47
2022/05/16 12:11:27;;;;;;;7.53;4.20;;;29.50;44.80;;;;;;5052329;28;20037;-47
2022/05/16 12:14:11;;;;;;;5.70;4.03;;;29.50;44.50;;;;;;5049853;28;20481;-48
2022/05/16 12:17:19;;;;;;;9.48;4.75;;;29.50;44.60;;;;;;5044454;28;20041;-51
2022/05/16 12:19:51;;;;;;;4.20;3.80;;;29.50;44.40;;;;;;5049810;28;20036;-49
2022/05/16 12:22:21;;;;;;;;;;;29.50;44.60;;;;;;5051153;28;20568;-49
2022/05/16 12:24:51;;;;;;;5.38;4.25;;;29.50;44.40;;;;;;5051039;28;19976;-45
2022/05/16 12:27:47;;;;;;;6.50;4.35;;;29.50;44.70;;;;;;5051640;28;20040;-48
2022/05/16 12:30:37;;;;;;;5.07;4.35;;;29.50;44.40;;;;;;5040067;28;20057;-49
2022/05/16 12:33:46;;;;;;;5.35;3.88;;;29.50;44.30;;;;;;5051014;28;20386;-47
2022/05/16 12:36:15;;;;;;;5.85;4.28;;;29.40;44.20;;;;;;5048735;28;20558;-48
2022/05/16 12:38:46;;;;;;;10.43;4.65;;;29.30;44.30;;;;;;5052260;28;20045;-47
2022/05/16 12:41:38;;;;;;;5.07;4.63;;;29.20;44.30;;;;;;5051681;28;20516;-46
2022/05/16 12:44:29;;;;;;;5.03;4.60;;;29.20;44.50;;;;;;5050489;28;20079;-50
2022/05/16 12:47:10;;;;;;;7.18;4.60;;;29.10;44.90;;;;;;5054140;28;20562;-47
2022/05/16 12:49:50;;;;;;;6.00;4.65;;;28.90;44.80;;;;;;5055915;28;20432;-48
2022/05/16 12:52:55;;;;;;;4.72;4.03;;;28.80;45.00;;;;;;5054092;28;20636;-49
2022/05/16 12:55:47;;;;;;;6.70;4.68;;;28.70;45.00;;;;;;5053690;28;20041;-48
2022/05/16 12:58:35;;;;;;;6.22;5.22;;;28.70;46.20;;;;;;5056318;28;20412;-50
2022/05/16 13:01:24;;;;;;;8.85;5.60;;;28.60;45.60;;;;;;5055105;28;20044;-49
2022/05/16 13:03:51;;;;;;;8.73;4.88;;;28.60;45.70;;;;;;5055926;28;20443;-50
2022/05/16 13:06:40;;;;;;;9.95;5.47;;;28.60;45.60;;;;;;5055243;28;20056;-45
2022/05/16 13:09:09;;;;;;;8.88;6.15;;;28.60;45.50;;;;;;5054809;28;20053;-47
2022/05/16 13:11:46;;;;;;;12.90;6.13;;;28.60;45.60;;;;;;5054075;28;20037;-47
2022/05/16 13:14:39;;;;;;;11.32;5.43;;;28.70;45.80;;;;;;5053832;28;20049;-47
2022/05/16 13:17:09;;;;;;;6.05;5.45;;;28.80;45.50;;;;;;5071694;28;20052;-48
2022/05/16 13:19:43;;;;;;;6.30;5.07;;;28.70;45.10;;;;;;5057608;28;20451;-50
2022/05/16 13:22:15;;;;;;;8.30;6.45;;;28.70;45.30;;;;;;5050488;28;20069;-47
2022/05/16 13:24:44;;;;;;;6.20;5.60;;;28.70;45.30;;;;;;5053083;28;20060;-45
2022/05/16 13:30:12;;;;;;;9.48;6.30;;;28.50;45.40;;;;;;5052377;28;20032;-49
2022/05/16 13:32:42;;;;;;;8.40;5.43;;;28.40;45.20;;;;;;5046684;28;20060;-50
2022/05/16 13:35:13;;;;;;;6.60;5.90;;;28.30;45.20;;;;;;5036156;28;20037;-49
2022/05/16 13:37:52;;;;;;;6.13;5.55;;;28.20;45.30;;;;;;5054047;28;20029;-45
2022/05/16 13:40:23;;;;;;;6.53;5.22;;;28.00;45.40;;;;;;5053288;28;20247;-48
2022/05/16 13:42:58;;;;;;;6.95;5.93;;;27.80;45.50;;;;;;5053974;28;20459;-45
2022/05/16 13:45:34;;;;;;;11.40;6.18;;;27.70;45.90;;;;;;5054432;28;20120;-50
2022/05/16 13:48:07;;;;;;;8.68;5.43;;;27.50;46.10;;;;;;5055060;28;20087;-48
2022/05/16 13:50:37;;;;;;;10.85;6.10;;;27.40;47.10;;;;;;5070649;23;20041;-46
2022/05/16 13:53:06;;;;;;;6.90;5.57;;;27.30;47.00;;;;;;5048209;28;20341;-50
2022/05/16 13:55:32;;;;;;;8.30;5.80;;;27.20;46.60;;;;;;5051916;28;20040;-48